Time;durP1;ratioP1;P1;durP2;ratioP2;P2;SDS_P1;SDS_P2;PMS_P1;PMS_P2;Temp;Humidity;BMP_temperature;BMP_pressure;BME280_temperature;BME280_humidity;BME280_pressure;Samples;Min_cycle;Max_cycle;Signal;HPM_P1;HPM_P2
2021/12/05 00:22:10;;;;;;;2.80;0.98;;;18.80;99.90;;;;;;5129258;27;20022;-78
2021/12/05 00:24:42;;;;;;;3.70;0.60;;;19.00;99.90;;;;;;5131777;27;20362;-78
2021/12/05 00:27:19;;;;;;;4.32;0.70;;;19.10;99.90;;;;;;5128416;27;20023;-77
2021/12/05 00:41:00;;;;;;;5.22;0.70;;;19.40;99.90;;;;;;5130050;27;20035;-76
2021/12/05 00:46:45;;;;;;;5.82;0.90;;;19.80;99.90;;;;;;5131063;27;20046;-78
2021/12/05 00:57:41;;;;;;;4.88;1.00;;;19.80;99.90;;;;;;5113002;28;20031;-78
2021/12/05 01:00:34;;;;;;;1.73;0.77;;;19.80;99.90;;;;;;5128090;28;20043;-80
2021/12/05 01:08:37;;;;;;;4.55;1.15;;;20.10;99.90;;;;;;5132347;28;20463;-77
2021/12/05 01:16:42;;;;;;;1.95;0.43;;;19.30;99.90;;;;;;5125940;28;20042;-79
2021/12/05 01:19:12;;;;;;;4.57;0.80;;;19.10;99.90;;;;;;5121496;28;20038;-80
2021/12/05 01:21:40;;;;;;;6.28;1.95;;;19.10;99.90;;;;;;5127982;28;20049;-78
2021/12/05 01:26:56;;;;;;;2.55;0.50;;;19.10;99.90;;;;;;5130228;28;20087;-77
2021/12/05 01:29:37;;;;;;;2.08;0.60;;;19.10;99.90;;;;;;5125154;28;20119;-78
2021/12/05 01:34:47;;;;;;;2.75;0.60;;;19.50;99.90;;;;;;5121930;28;20167;-78
2021/12/05 01:46:04;;;;;;;4.57;0.60;;;19.80;99.90;;;;;;5101617;28;20032;-77
2021/12/05 01:54:19;;;;;;;4.00;0.85;;;20.20;99.90;;;;;;5134482;27;20455;-77
2021/12/05 01:59:36;;;;;;;4.38;0.73;;;20.00;99.90;;;;;;5131247;27;20038;-80
2021/12/05 02:15:54;;;;;;;1.98;0.68;;;19.70;99.90;;;;;;5136265;27;20540;-78
2021/12/05 02:29:44;;;;;;;5.82;1.40;;;19.40;99.90;;;;;;5130296;27;20045;-79
2021/12/05 02:43:06;;;;;;;1.98;0.43;;;19.90;99.90;;;;;;5131062;27;20465;-78
2021/12/05 02:45:36;;;;;;;1.85;0.40;;;20.00;99.90;;;;;;5129262;27;20079;-78
2021/12/05 02:48:04;;;;;;;2.63;0.40;;;20.10;99.90;;;;;;5135673;27;20027;-80
2021/12/05 02:50:35;;;;;;;6.88;0.80;;;20.10;99.90;;;;;;5132601;27;20115;-79
2021/12/05 02:53:19;;;;;;;2.05;0.30;;;20.20;99.90;;;;;;5122855;27;20042;-79
2021/12/05 02:55:50;;;;;;;6.13;0.55;;;20.40;99.90;;;;;;5131678;27;20112;-77
2021/12/05 02:58:40;;;;;;;4.47;0.60;;;20.40;99.90;;;;;;5135200;27;20452;-79
2021/12/05 03:01:25;;;;;;;4.30;0.73;;;20.30;99.90;;;;;;5133581;27;20038;-80
2021/12/05 03:03:53;;;;;;;5.15;0.82;;;20.30;99.90;;;;;;5116983;27;20039;-78
2021/12/05 03:06:25;;;;;;;5.78;1.00;;;20.20;99.90;;;;;;5133346;27;20138;-78
2021/12/05 03:08:59;;;;;;;7.82;0.57;;;20.10;99.90;;;;;;5134362;27;20023;-79
2021/12/05 03:11:29;;;;;;;8.27;1.05;;;20.00;99.90;;;;;;5135100;27;20019;-77
2021/12/05 03:13:56;;;;;;;3.70;0.60;;;20.00;99.90;;;;;;5135287;27;20019;-78
2021/12/05 03:16:27;;;;;;;4.68;0.75;;;20.00;99.90;;;;;;5133877;27;20076;-80
2021/12/05 03:18:54;;;;;;;5.30;1.20;;;20.10;99.90;;;;;;5134026;27;20023;-78
2021/12/05 03:21:22;;;;;;;5.65;0.55;;;20.00;99.90;;;;;;5132669;27;20371;-74
2021/12/05 03:23:51;;;;;;;2.47;0.50;;;19.80;99.90;;;;;;5134529;27;20023;-76
2021/12/05 03:26:23;;;;;;;3.00;0.95;;;19.70;99.90;;;;;;5114272;27;20075;-77
2021/12/05 03:28:54;;;;;;;7.15;0.82;;;19.70;99.90;;;;;;5135067;27;20149;-78
2021/12/05 03:31:23;;;;;;;5.32;1.35;;;19.70;99.90;;;;;;5144682;27;20038;-76
2021/12/05 03:33:50;;;;;;;4.80;0.90;;;19.80;99.90;;;;;;5137132;27;20455;-78
2021/12/05 03:36:17;;;;;;;3.70;0.40;;;19.80;99.90;;;;;;5138200;27;20023;-77
2021/12/05 03:38:46;;;;;;;4.38;0.88;;;19.80;99.90;;;;;;5133896;27;20067;-77
2021/12/05 03:41:14;;;;;;;4.65;0.95;;;19.70;99.90;;;;;;5133348;27;20035;-78
2021/12/05 03:43:44;;;;;;;7.05;0.93;;;19.70;99.90;;;;;;5134530;27;20019;-79
2021/12/05 03:46:11;;;;;;;2.63;0.60;;;19.50;99.90;;;;;;5132920;27;20122;-75
2021/12/05 03:48:43;;;;;;;4.68;1.42;;;19.40;99.90;;;;;;5134541;27;20019;-79
2021/12/05 03:51:15;;;;;;;12.15;2.17;;;19.30;99.90;;;;;;5132949;27;20110;-77
2021/12/05 03:53:43;;;;;;;7.10;0.82;;;19.10;99.90;;;;;;5134397;27;20059;-77
2021/12/05 03:56:11;;;;;;;6.70;0.60;;;19.00;99.90;;;;;;5130406;27;20039;-78
2021/12/05 03:58:40;;;;;;;4.30;0.50;;;19.00;99.90;;;;;;5133347;27;20500;-76
2021/12/05 04:01:09;;;;;;;7.93;0.82;;;18.90;99.90;;;;;;5132293;27;20042;-78
2021/12/05 04:03:38;;;;;;;6.80;2.33;;;18.90;99.90;;;;;;5131413;27;20020;-74
2021/12/05 04:06:07;;;;;;;4.00;0.70;;;18.90;99.90;;;;;;5130543;27;20102;-77
2021/12/05 04:08:35;;;;;;;4.82;0.80;;;18.90;99.90;;;;;;5112928;27;20024;-76
2021/12/05 04:11:17;;;;;;;0.95;0.22;;;19.00;99.90;;;;;;5126377;27;20129;-74
2021/12/05 04:13:46;;;;;;;7.25;1.10;;;19.10;99.90;;;;;;5125659;27;20027;-76
2021/12/05 04:16:15;;;;;;;5.43;0.95;;;19.10;99.90;;;;;;5123134;27;20007;-75
2021/12/05 04:18:45;;;;;;;6.13;1.35;;;19.10;99.90;;;;;;5129801;27;20031;-75
2021/12/05 04:21:13;;;;;;;3.35;0.77;;;19.10;99.90;;;;;;5130367;27;20039;-77
2021/12/05 04:23:41;;;;;;;3.25;0.50;;;19.10;99.90;;;;;;5126835;27;20080;-78
2021/12/05 04:26:09;;;;;;;3.70;0.68;;;19.10;99.90;;;;;;5122703;27;20106;-74
2021/12/05 04:28:38;;;;;;;5.55;1.05;;;19.10;99.90;;;;;;5112615;28;20164;-78
2021/12/05 04:31:11;;;;;;;2.53;0.75;;;19.20;99.90;;;;;;5122675;27;20063;-76
2021/12/05 04:33:39;;;;;;;10.55;1.35;;;19.20;99.90;;;;;;5133362;27;20019;-77
2021/12/05 04:36:07;;;;;;;3.55;0.40;;;19.20;99.90;;;;;;5131490;27;20058;-75
2021/12/05 04:38:35;;;;;;;1.80;0.50;;;19.30;99.90;;;;;;5128072;27;20113;-76
2021/12/05 04:41:04;;;;;;;6.63;0.90;;;19.30;99.90;;;;;;5132400;27;20043;-76
2021/12/05 04:43:37;;;;;;;7.10;0.85;;;19.20;99.90;;;;;;5132502;27;20031;-77
2021/12/05 04:46:11;;;;;;;7.50;1.95;;;19.10;99.90;;;;;;5131487;27;20062;-75
2021/12/05 04:48:40;;;;;;;4.28;0.50;;;19.00;99.90;;;;;;5132066;27;20061;-74
2021/12/05 04:51:08;;;;;;;7.03;0.60;;;19.00;99.90;;;;;;5130023;27;20076;-74
2021/12/05 04:53:36;;;;;;;4.38;0.85;;;19.00;99.90;;;;;;5129482;27;20027;-76
2021/12/05 04:56:04;;;;;;;2.17;1.02;;;19.00;99.90;;;;;;5131556;27;20023;-76
2021/12/05 04:58:32;;;;;;;3.83;0.88;;;18.90;99.90;;;;;;5125396;28;20023;-78
2021/12/05 05:01:00;;;;;;;4.30;1.00;;;18.90;99.90;;;;;;5130410;28;20042;-76
2021/12/05 05:03:28;;;;;;;5.72;0.95;;;18.90;99.90;;;;;;5132981;28;20020;-75
2021/12/05 05:06:12;;;;;;;7.80;1.73;;;18.90;99.90;;;;;;5131310;28;20096;-74
2021/12/05 05:08:39;;;;;;;4.80;1.85;;;18.80;99.90;;;;;;5133066;28;20043;-78
2021/12/05 05:11:09;;;;;;;9.52;2.17;;;18.90;99.90;;;;;;5130590;28;20110;-75
2021/12/05 05:13:38;;;;;;;6.22;1.17;;;18.80;99.90;;;;;;5111118;28;20037;-74
2021/12/05 05:16:06;;;;;;;4.18;1.30;;;18.90;99.80;;;;;;5129242;28;20023;-78
2021/12/05 05:26:43;;;;;;;3.03;1.30;;;18.90;99.60;;;;;;5131590;28;20035;-78
2021/12/05 05:47:35;;;;;;;3.45;0.60;;;19.00;99.80;;;;;;5136447;27;20522;-79
2021/12/05 05:50:04;;;;;;;3.92;0.88;;;19.00;99.40;;;;;;5134049;27;20062;-79
2021/12/05 05:52:33;;;;;;;3.92;0.50;;;19.00;99.70;;;;;;5136262;27;20083;-80
2021/12/05 05:55:01;;;;;;;4.53;0.47;;;19.00;99.50;;;;;;5135081;27;20027;-80
2021/12/05 06:00:07;;;;;;;3.85;0.75;;;18.80;99.10;;;;;;5115344;27;20031;-79
2021/12/05 06:05:20;;;;;;;2.38;0.55;;;18.80;99.20;;;;;;5132551;27;19918;-79
2021/12/05 06:07:47;;;;;;;4.40;1.75;;;18.90;99.20;;;;;;5117235;28;20094;-80
2021/12/05 06:10:28;;;;;;;3.33;0.77;;;18.90;99.10;;;;;;5119668;27;20067;-80
2021/12/05 06:12:57;;;;;;;10.90;0.65;;;18.90;99.10;;;;;;5136581;27;20034;-79
2021/12/05 06:15:26;;;;;;;7.03;0.70;;;18.80;99.20;;;;;;5133834;27;20040;-78
2021/12/05 06:17:54;;;;;;;3.15;0.60;;;18.80;99.40;;;;;;5135905;27;20023;-79
2021/12/05 06:20:26;;;;;;;4.30;0.60;;;18.80;99.50;;;;;;5135161;27;20060;-77
2021/12/05 06:22:55;;;;;;;3.75;0.73;;;18.80;99.60;;;;;;5135221;27;20034;-77
2021/12/05 06:25:26;;;;;;;3.03;0.65;;;18.80;99.80;;;;;;5134768;27;20031;-79
2021/12/05 06:28:03;;;;;;;4.57;0.80;;;18.80;99.80;;;;;;5133227;27;20031;-79
2021/12/05 06:30:43;;;;;;;2.72;0.82;;;18.70;99.60;;;;;;5125391;27;20023;-79
2021/12/05 06:46:40;;;;;;;4.05;0.95;;;18.60;99.40;;;;;;5129925;27;20023;-77
2021/12/05 06:49:07;;;;;;;1.38;0.40;;;18.60;99.60;;;;;;5134878;27;20045;-80
2021/12/05 06:51:35;;;;;;;4.13;0.98;;;18.60;99.30;;;;;;5133958;27;20027;-80
2021/12/05 06:54:02;;;;;;;4.90;0.63;;;18.50;99.50;;;;;;5134144;27;20031;-79
2021/12/05 06:56:30;;;;;;;5.13;1.13;;;18.50;99.60;;;;;;5133456;27;20089;-77
2021/12/05 06:58:58;;;;;;;2.65;0.40;;;18.60;99.40;;;;;;5135956;27;20031;-78
2021/12/05 07:01:25;;;;;;;6.22;0.65;;;18.60;99.50;;;;;;5148561;27;20083;-79
2021/12/05 07:03:53;;;;;;;2.78;0.77;;;18.70;99.00;;;;;;5135422;27;20055;-81
2021/12/05 07:06:24;;;;;;;5.88;0.73;;;18.70;98.70;;;;;;5123326;27;20402;-78
2021/12/05 07:08:55;;;;;;;3.92;1.00;;;18.70;98.70;;;;;;5129258;27;20037;-78
2021/12/05 07:16:28;;;;;;;;;;;;;;;;;;;;;
2021/12/05 07:19:14;;;;;;;3.72;0.50;;;18.70;98.70;;;;;;5133821;27;20027;-79
2021/12/05 07:21:42;;;;;;;8.20;0.80;;;18.70;99.00;;;;;;5132566;27;20035;-78
2021/12/05 07:25:04;;;;;;;3.35;0.70;;;18.70;99.00;;;;;;5134072;27;20058;-80
2021/12/05 07:40:36;;;;;;;6.88;1.08;;;18.50;99.10;;;;;;5127396;27;20085;-77
2021/12/05 07:43:09;;;;;;;5.30;1.35;;;18.50;99.00;;;;;;5128254;27;20130;-77
2021/12/05 07:45:48;;;;;;;2.95;0.98;;;18.50;99.20;;;;;;5131266;27;20030;-79
2021/12/05 07:48:21;;;;;;;4.35;1.70;;;18.50;99.00;;;;;;5122239;27;20024;-76
2021/12/05 07:51:32;;;;;;;2.70;0.50;;;18.50;99.30;;;;;;5121248;27;20818;-77
2021/12/05 07:54:06;;;;;;;3.72;0.60;;;18.50;99.10;;;;;;5127487;27;20305;-78
2021/12/05 08:16:00;;;;;;;5.05;1.90;;;18.40;99.90;;;;;;5134025;27;20029;-82
2021/12/05 08:18:29;;;;;;;4.30;1.00;;;18.40;99.80;;;;;;5135068;27;20042;-80
2021/12/05 08:20:58;;;;;;;3.63;0.73;;;18.40;99.90;;;;;;5132628;27;20035;-83
2021/12/05 08:23:28;;;;;;;9.23;1.33;;;18.40;99.90;;;;;;5121911;27;20592;-78
2021/12/05 08:26:05;;;;;;;2.92;1.08;;;18.40;99.90;;;;;;5136339;27;20042;-81
2021/12/05 08:37:00;;;;;;;5.85;0.52;;;18.30;99.90;;;;;;5134862;27;20088;-82
2021/12/05 08:42:50;;;;;;;2.40;0.45;;;18.30;99.90;;;;;;5113647;28;20037;-84
2021/12/05 09:24:31;;;;;;;1.77;0.45;;;18.00;99.50;;;;;;5134317;28;20033;-81
2021/12/05 09:27:22;;;;;;;4.03;0.35;;;18.00;99.70;;;;;;5131993;28;20046;-76
2021/12/05 10:08:14;;;;;;;3.67;0.50;;;17.80;99.90;;;;;;5113477;28;20088;-79
2021/12/05 10:13:24;;;;;;;2.53;0.40;;;17.70;99.90;;;;;;5129428;28;20033;-80
2021/12/05 10:16:13;;;;;;;1.98;0.52;;;17.70;99.90;;;;;;5141306;27;20023;-76
2021/12/05 10:19:15;;;;;;;5.18;0.55;;;17.70;99.90;;;;;;5135692;27;20545;-78
2021/12/05 10:38:16;;;;;;;3.80;0.85;;;17.60;99.90;;;;;;5124593;27;20036;-80
2021/12/05 10:42:11;;;;;;;1.70;0.38;;;17.50;99.90;;;;;;5121203;27;20074;-79
2021/12/05 10:43:55;;;;;;;4.22;0.40;;;17.50;99.90;;;;;;5096789;27;20125;-77
2021/12/05 10:46:25;;;;;;;4.90;0.82;;;17.50;99.90;;;;;;5122978;27;20046;-80
2021/12/05 10:49:00;;;;;;;5.28;0.85;;;17.50;99.90;;;;;;5133100;27;20407;-77
2021/12/05 10:51:31;;;;;;;2.05;0.93;;;17.50;99.90;;;;;;5124678;27;20019;-77
2021/12/05 10:54:01;;;;;;;8.35;0.80;;;17.40;99.90;;;;;;5129811;27;20027;-78
2021/12/05 10:56:31;;;;;;;4.07;0.55;;;17.40;99.90;;;;;;5130488;27;20106;-73
2021/12/05 10:59:04;;;;;;;1.20;0.35;;;17.40;99.90;;;;;;5135052;27;20019;-79
2021/12/05 11:01:39;;;;;;;2.30;0.40;;;17.40;99.90;;;;;;5131702;27;20034;-80
2021/12/05 11:04:15;;;;;;;2.95;1.95;;;17.30;99.90;;;;;;5121206;27;20379;-79
2021/12/05 11:07:10;;;;;;;2.00;0.32;;;17.30;99.90;;;;;;5131270;27;20039;-82
2021/12/05 11:09:41;;;;;;;3.13;0.60;;;17.20;99.90;;;;;;5118407;27;20031;-81
2021/12/05 11:12:33;;;;;;;2.53;0.40;;;17.20;99.90;;;;;;5136918;27;20031;-81
2021/12/05 11:15:10;;;;;;;6.25;1.50;;;17.10;99.90;;;;;;5138854;27;20358;-82
2021/12/05 11:17:43;;;;;;;2.20;0.40;;;17.10;99.90;;;;;;5133369;27;20054;-81
2021/12/05 11:20:21;;;;;;;6.50;0.50;;;17.00;99.90;;;;;;5136970;27;20039;-80
2021/12/05 11:22:53;;;;;;;1.40;0.40;;;17.00;99.90;;;;;;5125159;27;20031;-79
2021/12/05 11:25:31;;;;;;;3.08;0.60;;;17.00;99.90;;;;;;5116891;28;20049;-79
2021/12/05 11:28:03;;;;;;;6.50;0.77;;;16.90;99.90;;;;;;5127970;27;20027;-78
2021/12/05 11:30:34;;;;;;;4.60;0.80;;;16.90;99.90;;;;;;5121292;27;20024;-81
2021/12/05 11:33:06;;;;;;;11.18;0.65;;;16.90;99.90;;;;;;5128356;27;20030;-80
2021/12/05 11:35:44;;;;;;;4.22;0.50;;;16.90;99.90;;;;;;5128074;27;20015;-80
2021/12/05 11:38:19;;;;;;;2.53;0.75;;;16.90;99.90;;;;;;5133572;27;20050;-80
2021/12/05 11:40:58;;;;;;;4.15;0.77;;;16.90;99.90;;;;;;5135588;27;20524;-77
2021/12/05 11:43:32;;;;;;;1.83;0.47;;;16.90;99.90;;;;;;5130327;27;20068;-78
2021/12/05 11:46:06;;;;;;;3.22;0.50;;;16.80;99.90;;;;;;5120723;27;20379;-76
2021/12/05 11:48:48;;;;;;;3.88;0.50;;;16.80;99.90;;;;;;5120204;27;20015;-81
2021/12/05 11:51:28;;;;;;;2.05;0.40;;;16.70;99.90;;;;;;5110502;27;20440;-79
2021/12/05 11:54:12;;;;;;;1.42;0.63;;;16.70;99.90;;;;;;5134570;27;20408;-79
2021/12/05 11:56:50;;;;;;;3.17;0.82;;;16.70;99.90;;;;;;5125864;27;20027;-81
2021/12/05 11:59:22;;;;;;;3.00;0.68;;;16.70;99.90;;;;;;5103329;28;20019;-77
2021/12/05 12:01:56;;;;;;;4.78;0.90;;;16.70;99.90;;;;;;5109508;27;20052;-81
2021/12/05 12:04:37;;;;;;;3.25;0.65;;;16.70;99.90;;;;;;5123185;27;20083;-76
2021/12/05 12:07:25;;;;;;;2.85;1.67;;;16.60;99.90;;;;;;5132861;27;20029;-78
2021/12/05 12:10:01;;;;;;;4.00;1.30;;;16.60;99.90;;;;;;5129203;27;20095;-82
2021/12/05 12:12:29;;;;;;;8.57;1.15;;;16.70;99.90;;;;;;5124944;27;20030;-75
2021/12/05 12:14:56;;;;;;;7.28;1.60;;;16.60;99.90;;;;;;5124366;27;20038;-77
2021/12/05 12:17:25;;;;;;;5.95;1.42;;;16.60;99.90;;;;;;5121452;27;20391;-77
2021/12/05 12:19:55;;;;;;;5.72;1.23;;;16.60;99.90;;;;;;5124871;27;20043;-78
2021/12/05 12:22:25;;;;;;;1.95;0.75;;;16.60;99.90;;;;;;5128497;27;20031;-74
2021/12/05 12:25:01;;;;;;;2.72;0.70;;;16.60;99.90;;;;;;5132357;27;20062;-78
2021/12/05 12:27:29;;;;;;;5.85;1.52;;;16.50;99.90;;;;;;5132123;27;20071;-77
2021/12/05 12:30:00;;;;;;;6.72;1.38;;;16.60;99.90;;;;;;5129914;27;20030;-80
2021/12/05 12:32:33;;;;;;;3.03;1.27;;;16.60;99.90;;;;;;5124818;27;20050;-77
2021/12/05 12:35:08;;;;;;;9.00;1.55;;;16.60;99.90;;;;;;5121635;27;20045;-77
2021/12/05 12:37:54;;;;;;;2.85;0.82;;;16.60;99.90;;;;;;5124262;27;20434;-75
2021/12/05 12:40:51;;;;;;;3.55;1.00;;;16.60;99.90;;;;;;5123503;27;20684;-76
2021/12/05 12:43:36;;;;;;;6.72;1.40;;;16.50;99.90;;;;;;5131572;27;20027;-75
2021/12/05 12:46:26;;;;;;;1.92;0.63;;;16.50;99.90;;;;;;5127388;27;20049;-79
2021/12/05 12:48:58;;;;;;;4.45;1.10;;;16.50;99.90;;;;;;5127879;27;20034;-78
2021/12/05 12:51:26;;;;;;;3.97;1.17;;;16.50;99.90;;;;;;5131168;27;20042;-77
2021/12/05 12:54:01;;;;;;;8.15;1.10;;;16.60;99.90;;;;;;5122725;27;20420;-76
2021/12/05 12:56:29;;;;;;;6.68;1.10;;;16.50;99.90;;;;;;5121199;27;20475;-73
2021/12/05 12:59:06;;;;;;;2.90;0.63;;;16.60;99.90;;;;;;5121846;27;20109;-78
2021/12/05 13:05:01;;;;;;;3.88;0.73;;;16.50;99.90;;;;;;5120563;28;20023;-76
2021/12/05 13:10:27;;;;;;;8.57;1.80;;;16.50;99.90;;;;;;5122622;28;20046;-77
2021/12/05 13:13:20;;;;;;;10.70;1.35;;;16.50;99.90;;;;;;5116400;28;20032;-75
2021/12/05 13:15:57;;;;;;;3.33;0.80;;;16.50;99.90;;;;;;5121902;28;20081;-76
2021/12/05 13:18:31;;;;;;;4.78;0.70;;;16.50;99.90;;;;;;5132456;28;20390;-77
2021/12/05 13:21:31;;;;;;;3.80;1.10;;;16.50;99.90;;;;;;5128600;28;20091;-79
2021/12/05 13:23:58;;;;;;;2.15;0.50;;;16.50;99.90;;;;;;5102886;28;20566;-77
2021/12/05 13:26:34;;;;;;;3.40;0.63;;;16.40;99.90;;;;;;5128378;28;20058;-78
2021/12/05 13:29:17;;;;;;;3.22;0.50;;;16.50;99.90;;;;;;5113767;28;20047;-77
2021/12/05 13:31:47;;;;;;;3.70;1.10;;;16.50;99.90;;;;;;5118428;28;20030;-78
2021/12/05 13:34:38;;;;;;;2.40;0.73;;;16.50;99.90;;;;;;5122880;28;20051;-77
2021/12/05 13:37:13;;;;;;;4.72;0.43;;;16.40;99.90;;;;;;5118676;28;20067;-76
2021/12/05 13:39:54;;;;;;;5.85;1.45;;;16.40;99.90;;;;;;5127786;28;20161;-76
2021/12/05 13:42:48;;;;;;;3.05;0.50;;;16.40;99.90;;;;;;5131829;28;20393;-76
2021/12/05 13:45:29;;;;;;;7.93;0.70;;;16.40;99.90;;;;;;5102527;28;20035;-77
2021/12/05 13:47:58;;;;;;;2.80;1.27;;;16.40;99.90;;;;;;5121373;28;20385;-73
2021/12/05 13:50:38;;;;;;;2.90;0.70;;;16.40;99.90;;;;;;5132625;27;20027;-77
2021/12/05 13:53:08;;;;;;;7.55;1.00;;;16.40;99.90;;;;;;5124717;27;20050;-75
2021/12/05 13:55:53;;;;;;;2.22;0.55;;;16.40;99.90;;;;;;5122756;27;20027;-76
2021/12/05 13:58:38;;;;;;;4.32;1.50;;;16.40;99.90;;;;;;5124558;27;20023;-76
2021/12/05 14:01:17;;;;;;;4.80;0.95;;;16.40;99.90;;;;;;5132182;27;20035;-75
2021/12/05 14:03:50;;;;;;;2.30;0.60;;;16.40;99.90;;;;;;5121411;27;20062;-75
2021/12/05 14:06:47;;;;;;;6.72;0.90;;;16.40;99.90;;;;;;5120912;27;20103;-75
2021/12/05 14:09:19;;;;;;;3.72;0.80;;;16.40;99.90;;;;;;5126646;27;20019;-75
2021/12/05 14:11:57;;;;;;;5.57;1.02;;;16.30;99.90;;;;;;5124664;27;20122;-74
2021/12/05 14:14:37;;;;;;;1.48;0.85;;;16.30;99.90;;;;;;5116815;27;20348;-74
2021/12/05 14:17:20;;;;;;;7.65;1.05;;;16.30;99.90;;;;;;5130423;27;20371;-74
2021/12/05 14:20:19;;;;;;;2.72;0.88;;;16.30;99.90;;;;;;5115366;27;20076;-80
2021/12/05 14:22:49;;;;;;;5.25;1.67;;;16.30;99.90;;;;;;5119974;27;20027;-79
2021/12/05 14:25:22;;;;;;;3.75;1.00;;;16.30;99.90;;;;;;5134314;27;20023;-79
2021/12/05 14:27:57;;;;;;;6.78;1.40;;;16.30;99.90;;;;;;5134459;27;20427;-80
2021/12/05 14:30:28;;;;;;;4.22;1.30;;;16.30;99.90;;;;;;5131764;27;20025;-79
2021/12/05 14:32:59;;;;;;;1.90;1.02;;;16.20;99.90;;;;;;5131108;27;20062;-79
2021/12/05 14:35:33;;;;;;;2.40;1.25;;;16.20;99.90;;;;;;5124749;27;20031;-81
2021/12/05 14:38:04;;;;;;;6.30;0.63;;;16.20;99.90;;;;;;5124678;27;20039;-80
2021/12/05 14:40:34;;;;;;;2.63;1.25;;;16.10;99.90;;;;;;5132744;27;20030;-81
2021/12/05 14:43:07;;;;;;;5.10;1.02;;;16.10;99.90;;;;;;5119824;27;20102;-78
2021/12/05 14:45:37;;;;;;;4.13;0.55;;;16.10;99.90;;;;;;5131965;27;20062;-81
2021/12/05 14:48:10;;;;;;;4.82;0.80;;;16.10;99.90;;;;;;5132152;27;20039;-81
2021/12/05 14:50:40;;;;;;;4.68;0.90;;;16.10;99.90;;;;;;5131953;27;20023;-80
2021/12/05 14:53:10;;;;;;;13.40;1.23;;;16.20;99.90;;;;;;5133379;27;20043;-81
2021/12/05 14:55:37;;;;;;;7.05;0.88;;;16.20;99.90;;;;;;5126765;27;20106;-81
2021/12/05 14:58:09;;;;;;;3.05;0.70;;;16.20;99.90;;;;;;5123272;27;20549;-80
2021/12/05 15:00:49;;;;;;;3.30;0.73;;;16.20;99.90;;;;;;5118952;27;20058;-80
2021/12/05 15:03:20;;;;;;;3.92;0.90;;;16.20;99.90;;;;;;5133585;27;20448;-79
2021/12/05 15:05:53;;;;;;;1.25;0.45;;;16.20;99.90;;;;;;5132708;27;20019;-81
2021/12/05 15:08:23;;;;;;;8.38;1.25;;;16.10;99.90;;;;;;5132498;27;20015;-81
2021/12/05 15:11:00;;;;;;;3.95;0.75;;;16.20;99.90;;;;;;5131647;27;20374;-80
2021/12/05 15:13:28;;;;;;;5.95;0.57;;;16.20;99.90;;;;;;5129344;27;20023;-79
2021/12/05 15:15:56;;;;;;;5.53;0.80;;;16.20;99.90;;;;;;5122792;27;20027;-79
2021/12/05 15:18:32;;;;;;;3.85;1.45;;;16.20;99.90;;;;;;5121776;27;20047;-79
2021/12/05 15:21:01;;;;;;;5.82;1.05;;;16.20;99.90;;;;;;5121506;27;20039;-80
2021/12/05 15:23:32;;;;;;;2.88;0.68;;;16.20;99.90;;;;;;5127078;27;20031;-79
2021/12/05 15:26:01;;;;;;;6.03;0.77;;;16.30;99.90;;;;;;5125413;27;20031;-81
2021/12/05 15:28:29;;;;;;;2.63;0.60;;;16.20;99.90;;;;;;5128181;27;20106;-75
2021/12/05 15:30:56;;;;;;;5.18;0.90;;;16.30;99.90;;;;;;5127990;27;20106;-80
2021/12/05 15:33:26;;;;;;;5.00;1.40;;;16.20;99.90;;;;;;5127837;27;20023;-78
2021/12/05 15:35:58;;;;;;;6.15;0.88;;;16.30;99.90;;;;;;5124162;27;20016;-78
2021/12/05 15:38:29;;;;;;;4.65;1.17;;;16.20;99.90;;;;;;5129966;27;20051;-79
2021/12/05 15:41:00;;;;;;;3.90;0.82;;;16.20;99.90;;;;;;5127832;27;20078;-78
2021/12/05 15:43:28;;;;;;;3.20;0.60;;;16.20;99.90;;;;;;5122320;27;20382;-81
2021/12/05 15:45:58;;;;;;;5.63;1.15;;;16.30;99.90;;;;;;5122550;27;20034;-80
2021/12/05 15:48:29;;;;;;;2.80;0.70;;;16.30;99.90;;;;;;5124405;27;20030;-77
2021/12/05 15:50:57;;;;;;;4.70;0.93;;;16.20;99.90;;;;;;5121493;27;20034;-78
2021/12/05 15:53:26;;;;;;;3.85;0.50;;;16.20;99.90;;;;;;5124789;27;20023;-79
2021/12/05 15:55:58;;;;;;;6.68;0.77;;;16.20;99.90;;;;;;5129696;27;20409;-78
2021/12/05 15:58:41;;;;;;;3.92;0.70;;;16.20;99.90;;;;;;5133513;27;20523;-78
2021/12/05 16:01:21;;;;;;;11.68;1.40;;;16.20;99.90;;;;;;5116182;27;20047;-79
2021/12/05 16:03:55;;;;;;;4.68;1.35;;;16.20;99.90;;;;;;5124308;27;20031;-81
2021/12/05 16:06:36;;;;;;;3.00;0.80;;;16.10;99.90;;;;;;5129724;27;20032;-77
2021/12/05 16:09:15;;;;;;;10.70;1.15;;;16.10;99.90;;;;;;5134464;27;20040;-79
2021/12/05 16:11:42;;;;;;;4.22;1.00;;;16.10;99.90;;;;;;5114888;27;20036;-79
2021/12/05 16:14:10;;;;;;;4.72;1.38;;;16.10;99.90;;;;;;5117334;27;20023;-79
2021/12/05 16:16:37;;;;;;;3.08;1.25;;;16.10;99.90;;;;;;5132363;27;20031;-78
2021/12/05 16:19:09;;;;;;;3.88;1.38;;;16.10;99.90;;;;;;5125318;27;20039;-77
2021/12/05 16:21:39;;;;;;;4.38;0.60;;;16.10;99.90;;;;;;5145799;27;20095;-79
2021/12/05 16:24:12;;;;;;;2.20;0.85;;;16.10;99.90;;;;;;5130869;27;20081;-80
2021/12/05 16:26:41;;;;;;;10.82;0.80;;;16.10;99.90;;;;;;5130784;27;20066;-78
2021/12/05 16:29:12;;;;;;;4.75;1.60;;;16.10;99.90;;;;;;5131372;27;20523;-79
2021/12/05 16:31:45;;;;;;;3.40;0.88;;;16.00;99.90;;;;;;5127904;27;20034;-80
2021/12/05 16:34:19;;;;;;;5.93;1.15;;;16.10;99.90;;;;;;5122461;27;20043;-79
2021/12/05 16:36:56;;;;;;;3.72;0.60;;;16.00;99.90;;;;;;5133231;27;20033;-79
2021/12/05 16:39:34;;;;;;;3.03;0.63;;;16.10;99.90;;;;;;5132838;27;20528;-78
2021/12/05 16:42:06;;;;;;;6.05;0.60;;;16.10;99.90;;;;;;5123166;27;20081;-80
2021/12/05 16:44:40;;;;;;;6.13;0.75;;;16.10;99.90;;;;;;5114763;27;20448;-79
2021/12/05 16:47:17;;;;;;;4.15;0.65;;;16.00;99.90;;;;;;5131231;27;20033;-77
2021/12/05 16:49:48;;;;;;;6.07;1.15;;;16.00;99.90;;;;;;5112712;28;20529;-78
2021/12/05 16:52:19;;;;;;;6.80;0.77;;;16.10;99.90;;;;;;5123258;27;20023;-77
2021/12/05 16:54:50;;;;;;;7.28;1.10;;;16.10;99.90;;;;;;5121127;27;20025;-79
2021/12/05 16:57:23;;;;;;;2.85;0.52;;;16.10;99.90;;;;;;5121491;27;20500;-77
2021/12/05 16:59:54;;;;;;;4.50;0.50;;;16.10;99.90;;;;;;5130481;27;20035;-79
2021/12/05 17:02:29;;;;;;;5.60;1.75;;;16.10;99.90;;;;;;5125761;27;20027;-79
2021/12/05 17:05:06;;;;;;;3.97;0.60;;;16.20;99.90;;;;;;5118866;28;20027;-78
2021/12/05 17:07:56;;;;;;;4.10;0.77;;;16.10;99.90;;;;;;5117114;28;20072;-78
2021/12/05 17:10:26;;;;;;;8.52;1.00;;;16.20;99.90;;;;;;5130683;28;20362;-77
2021/12/05 17:13:15;;;;;;;10.93;0.93;;;16.20;99.90;;;;;;5132353;28;20085;-77
2021/12/05 17:15:48;;;;;;;7.15;0.93;;;16.20;99.90;;;;;;5127736;28;20058;-78
2021/12/05 17:18:28;;;;;;;4.55;2.08;;;16.10;99.90;;;;;;5105106;28;20031;-78
2021/12/05 17:21:17;;;;;;;7.90;0.88;;;16.20;99.90;;;;;;5130981;28;20469;-79
2021/12/05 17:24:12;;;;;;;2.25;0.50;;;16.10;99.90;;;;;;5118031;27;20034;-76
2021/12/05 17:26:46;;;;;;;7.38;1.05;;;16.20;99.90;;;;;;5128457;27;20019;-77
2021/12/05 17:29:26;;;;;;;2.90;0.60;;;16.20;99.90;;;;;;5115778;28;20031;-79
2021/12/05 17:31:58;;;;;;;3.63;0.85;;;16.20;99.90;;;;;;5133649;27;20031;-78
2021/12/05 17:34:41;;;;;;;4.50;0.88;;;16.20;99.90;;;;;;5130459;27;20011;-81
2021/12/05 17:37:13;;;;;;;6.90;0.60;;;16.20;99.90;;;;;;5124613;27;20043;-78
2021/12/05 17:39:44;;;;;;;4.40;0.60;;;16.20;99.90;;;;;;5107834;28;20053;-78
2021/12/05 17:42:18;;;;;;;7.53;1.80;;;16.20;99.90;;;;;;5113509;28;20036;-77
2021/12/05 17:44:48;;;;;;;4.82;1.20;;;16.20;99.90;;;;;;5113749;28;20027;-73
2021/12/05 17:47:17;;;;;;;4.13;0.70;;;16.20;99.90;;;;;;5108583;28;20028;-77
2021/12/05 17:49:47;;;;;;;9.05;0.60;;;16.20;99.90;;;;;;5095282;28;20024;-78
2021/12/05 17:52:16;;;;;;;4.60;0.70;;;16.20;99.90;;;;;;5113735;28;20020;-78
2021/12/05 17:54:55;;;;;;;3.55;0.88;;;16.20;99.90;;;;;;5114314;28;20045;-76
2021/12/05 17:57:37;;;;;;;4.97;0.68;;;16.20;99.90;;;;;;5103616;28;20395;-77
2021/12/05 18:00:22;;;;;;;2.05;0.38;;;16.10;99.90;;;;;;5106109;28;20032;-77
2021/12/05 18:06:19;;;;;;;7.05;1.00;;;16.10;99.90;;;;;;5065683;28;20062;-79
2021/12/05 18:08:47;;;;;;;2.50;0.65;;;16.20;99.90;;;;;;5094529;28;20044;-77
2021/12/05 18:11:22;;;;;;;3.72;0.95;;;16.20;99.90;;;;;;5106542;28;20037;-79
2021/12/05 18:13:52;;;;;;;8.57;0.95;;;16.20;99.90;;;;;;5113338;28;20110;-78
2021/12/05 18:16:24;;;;;;;6.82;1.08;;;16.20;99.90;;;;;;5098964;28;20126;-79
2021/12/05 18:18:55;;;;;;;4.57;1.20;;;16.20;99.90;;;;;;5102215;28;20107;-77
2021/12/05 18:21:25;;;;;;;7.53;1.58;;;16.20;99.90;;;;;;5107806;28;20043;-77
2021/12/05 18:23:54;;;;;;;3.30;0.82;;;16.20;99.90;;;;;;5110694;28;20031;-78
2021/12/05 18:26:21;;;;;;;5.07;0.82;;;16.20;99.90;;;;;;5103280;28;20024;-76
2021/12/05 18:28:49;;;;;;;6.18;0.82;;;16.30;99.90;;;;;;5111111;28;20043;-77
2021/12/05 18:31:20;;;;;;;4.82;0.75;;;16.30;99.90;;;;;;5103953;28;20509;-77
2021/12/05 18:33:51;;;;;;;5.30;0.60;;;16.30;99.90;;;;;;5100810;28;20028;-79
2021/12/05 18:36:19;;;;;;;5.75;0.70;;;16.30;99.90;;;;;;5105445;28;20031;-79